createdAt,value
2023-05-16T00:01:54.746Z,100832.88
2023-05-16T00:04:23.015Z,100833.97
2023-05-16T00:06:49.997Z,100829.13
2023-05-16T00:09:17.884Z,100830.47
2023-05-16T00:11:48.232Z,100829.78
2023-05-16T00:14:15.265Z,100829.66
2023-05-16T00:16:42.364Z,100838.00
2023-05-16T00:19:10.541Z,100823.53
2023-05-16T00:21:37.525Z,100829.91
2023-05-16T00:24:05.868Z,100839.59
2023-05-16T00:26:35.089Z,100838.84
2023-05-16T00:29:04.500Z,100830.59
2023-05-16T00:31:31.753Z,100828.34
2023-05-16T00:34:01.146Z,100834.16
2023-05-16T00:36:29.071Z,100834.31
2023-05-16T00:38:56.453Z,100841.38
2023-05-16T00:41:28.597Z,100840.94
2023-05-16T00:43:57.960Z,100837.16
2023-05-16T00:46:27.390Z,100833.63
2023-05-16T00:48:54.508Z,100838.75
2023-05-16T00:51:21.746Z,100833.72
2023-05-16T00:53:48.869Z,100832.13
2023-05-16T00:56:17.218Z,100848.00
2023-05-16T00:58:44.543Z,100843.84
2023-05-16T01:01:12.549Z,100847.06
2023-05-16T01:03:39.909Z,100854.66
2023-05-16T01:06:07.321Z,100852.78
2023-05-16T01:08:34.307Z,100845.81
2023-05-16T01:11:17.044Z,100843.91
2023-05-16T01:14:08.598Z,100850.13
2023-05-16T01:17:12.854Z,100841.31
2023-05-16T01:20:15.297Z,100841.69
2023-05-16T01:23:14.788Z,100838.50
2023-05-16T01:26:16.119Z,100843.41
2023-05-16T01:28:46.923Z,100841.13
2023-05-16T01:31:14.286Z,100848.84
2023-05-16T01:33:41.330Z,100852.22
2023-05-16T01:36:22.605Z,100840.66
2023-05-16T01:39:01.857Z,100841.88
2023-05-16T01:41:35.562Z,100835.78
2023-05-16T01:44:17.149Z,100849.59
2023-05-16T01:46:48.292Z,100841.03
2023-05-16T01:49:31.883Z,100842.94
2023-05-16T01:52:11.836Z,100849.78
2023-05-16T01:54:45.127Z,100843.75
2023-05-16T01:57:16.347Z,100846.94
2023-05-16T01:59:47.524Z,100838.69
2023-05-16T02:02:14.871Z,100856.06
2023-05-16T02:04:42.084Z,100845.00
2023-05-16T02:07:09.201Z,100849.03
2023-05-16T02:09:36.381Z,100840.94
2023-05-16T02:12:04.546Z,100837.00
2023-05-16T02:14:31.553Z,100844.06
2023-05-16T02:16:58.820Z,100844.16
2023-05-16T02:19:25.747Z,100845.09
2023-05-16T02:21:55.735Z,100836.25
2023-05-16T02:24:22.626Z,100845.91
2023-05-16T02:26:49.669Z,100849.78
2023-05-16T02:29:19.060Z,100855.53
2023-05-16T02:31:48.279Z,100859.53
2023-05-16T02:34:17.254Z,100873.34
2023-05-16T02:36:44.190Z,100863.31
2023-05-16T02:39:11.411Z,100867.34
2023-05-16T02:41:38.463Z,100870.56
2023-05-16T02:44:05.768Z,100872.16
2023-05-16T02:46:52.860Z,100901.00
2023-05-16T02:49:21.968Z,100891.63
2023-05-16T02:51:49.042Z,100899.25
2023-05-16T02:54:16.013Z,100895.50
2023-05-16T02:56:45.137Z,100901.66
2023-05-16T02:59:13.140Z,100906.31
2023-05-16T03:01:40.390Z,100902.78
2023-05-16T03:04:07.548Z,100906.53
2023-05-16T03:06:37.054Z,100901.28
2023-05-16T03:09:04.002Z,100893.84
2023-05-16T03:11:31.035Z,100906.25
2023-05-16T03:14:02.588Z,100913.84
2023-05-16T03:16:29.552Z,100912.56
2023-05-16T03:18:57.169Z,100912.25
2023-05-16T03:21:24.200Z,100921.88
2023-05-16T03:23:51.146Z,100915.56
2023-05-16T03:26:21.351Z,100915.72
2023-05-16T03:28:51.559Z,100913.34
2023-05-16T03:31:18.570Z,100920.38
2023-05-16T03:33:45.729Z,100916.25
2023-05-16T03:36:12.790Z,100922.34
2023-05-16T03:38:39.857Z,100921.38
2023-05-16T03:41:09.281Z,100927.69
2023-05-16T03:43:36.696Z,100929.28
2023-05-16T03:46:06.357Z,100933.56
2023-05-16T03:48:36.340Z,100932.75
2023-05-16T03:51:03.335Z,100938.13
2023-05-16T03:53:30.337Z,100937.09
2023-05-16T03:55:57.375Z,100939.03
2023-05-16T03:58:27.227Z,100941.72
2023-05-16T04:00:56.564Z,100947.91
2023-05-16T04:03:28.480Z,100960.81
2023-05-16T04:06:00.806Z,100967.31
2023-05-16T04:08:27.763Z,100970.38
2023-05-16T04:10:57.773Z,100975.66
2023-05-16T04:13:27.393Z,100975.41
2023-05-16T04:15:54.562Z,100975.47
2023-05-16T04:18:23.671Z,100972.78
2023-05-16T04:20:50.611Z,100976.94
2023-05-16T04:23:22.080Z,100976.53
2023-05-16T04:25:49.098Z,100965.28
2023-05-16T04:28:18.411Z,100970.38
2023-05-16T04:30:48.745Z,100970.66
2023-05-16T04:33:16.727Z,100975.09
2023-05-16T04:35:49.908Z,100976.47
2023-05-16T04:38:16.913Z,100985.31
2023-05-16T04:40:46.872Z,100983.09
2023-05-16T04:43:13.972Z,100987.75
2023-05-16T04:45:42.874Z,100999.13
2023-05-16T04:48:10.737Z,101001.06
2023-05-16T04:50:37.947Z,100995.41
2023-05-16T04:53:07.136Z,101006.06
2023-05-16T04:55:34.324Z,101003.66
2023-05-16T04:58:03.932Z,100999.53
2023-05-16T05:00:30.908Z,101008.13
2023-05-16T05:02:57.985Z,101013.50
2023-05-16T05:05:25.210Z,101017.34
2023-05-16T05:07:52.653Z,101013.22
2023-05-16T05:10:19.696Z,101022.41
2023-05-16T05:12:49.121Z,101020.38
2023-05-16T05:15:16.191Z,101022.44
2023-05-16T05:17:43.234Z,101019.03
2023-05-16T05:20:11.800Z,101012.97
2023-05-16T05:22:38.963Z,101025.56
2023-05-16T05:25:11.284Z,101027.06
2023-05-16T05:27:42.809Z,101023.88
2023-05-16T05:30:12.671Z,101027.41
2023-05-16T05:32:42.106Z,101029.94
2023-05-16T05:35:12.426Z,101035.25
2023-05-16T05:37:39.365Z,101041.75
2023-05-16T05:40:07.519Z,101035.66
2023-05-16T05:42:34.532Z,101041.69
2023-05-16T05:45:01.710Z,101033.97
2023-05-16T05:47:31.082Z,101042.03
2023-05-16T05:50:01.246Z,101038.56
2023-05-16T05:52:28.484Z,101047.69
2023-05-16T05:54:55.577Z,101047.91
2023-05-16T05:57:22.758Z,101045.25
2023-05-16T05:59:49.989Z,101053.38
2023-05-16T06:02:17.629Z,101058.78
2023-05-16T06:04:45.387Z,101058.16
2023-05-16T06:07:12.949Z,101059.28
2023-05-16T06:09:39.960Z,101070.22
2023-05-16T06:12:12.533Z,101063.47
2023-05-16T06:14:40.242Z,101067.69
2023-05-16T06:17:07.375Z,101074.06
2023-05-16T06:19:38.949Z,101074.63
2023-05-16T06:22:11.247Z,101091.91
2023-05-16T06:24:38.496Z,101086.84
2023-05-16T06:27:06.066Z,101101.59
2023-05-16T06:29:33.092Z,101095.09
2023-05-16T06:32:00.117Z,101108.53
2023-05-16T06:34:29.690Z,101107.38
2023-05-16T06:36:56.832Z,101110.41
2023-05-16T06:39:26.361Z,101124.41
2023-05-16T06:41:56.682Z,101115.00
2023-05-16T06:44:27.730Z,101114.44
2023-05-16T06:46:57.886Z,101116.81
2023-05-16T06:49:24.981Z,101120.56
2023-05-16T06:51:54.442Z,101112.44
2023-05-16T06:54:25.769Z,101120.97
2023-05-16T06:56:55.748Z,101124.88
2023-05-16T06:59:22.846Z,101127.06
2023-05-16T07:01:52.694Z,101130.16
2023-05-16T07:04:19.978Z,101126.19
2023-05-16T07:06:47.023Z,101120.28
2023-05-16T07:09:14.283Z,101128.31
2023-05-16T07:11:43.869Z,101132.91
2023-05-16T07:14:13.996Z,101140.34
2023-05-16T07:16:41.187Z,101137.34
2023-05-16T07:19:08.658Z,101134.88
2023-05-16T07:21:35.865Z,101143.13
2023-05-16T07:24:02.994Z,101146.66
2023-05-16T07:26:30.157Z,101159.81
2023-05-16T07:29:05.090Z,101154.38
2023-05-16T07:31:32.392Z,101153.19
2023-05-16T07:33:59.586Z,101155.97
2023-05-16T07:36:26.774Z,101169.06
2023-05-16T07:38:53.771Z,101165.97
2023-05-16T07:41:21.799Z,101163.72
2023-05-16T07:43:48.798Z,101163.72
2023-05-16T07:46:15.988Z,101164.31
2023-05-16T07:48:45.708Z,101165.09
2023-05-16T07:51:12.829Z,101164.34
2023-05-16T07:53:39.825Z,101153.94
2023-05-16T07:56:08.574Z,101155.72
2023-05-16T07:58:39.068Z,101161.16
2023-05-16T08:01:06.652Z,101173.03
2023-05-16T08:03:33.942Z,101168.88
2023-05-16T08:06:01.383Z,101172.78
2023-05-16T08:08:31.192Z,101185.28
2023-05-16T08:11:00.426Z,101171.22
2023-05-16T08:13:27.414Z,101179.41
2023-05-16T08:15:59.104Z,101171.16
2023-05-16T08:18:26.228Z,101158.16
2023-05-16T08:20:53.193Z,101164.09
2023-05-16T08:23:22.544Z,101169.16
2023-05-16T08:25:52.062Z,101173.59
2023-05-16T08:28:19.205Z,101170.31
2023-05-16T08:30:48.028Z,101166.97
2023-05-16T08:33:16.054Z,101171.50
2023-05-16T08:35:44.462Z,101155.31
2023-05-16T08:38:14.207Z,101160.44
2023-05-16T08:40:42.891Z,101166.34
2023-05-16T08:43:12.546Z,101169.75
2023-05-16T08:45:42.807Z,101157.47
2023-05-16T08:48:12.080Z,101156.56
2023-05-16T08:50:39.720Z,101156.31
2023-05-16T08:53:09.921Z,101166.50
2023-05-16T08:55:38.066Z,101165.50
2023-05-16T08:58:08.102Z,101172.47
2023-05-16T09:00:36.367Z,101172.19
2023-05-16T09:03:04.064Z,101163.31
2023-05-16T09:05:34.228Z,101162.94
2023-05-16T09:08:01.280Z,101166.72
2023-05-16T09:10:31.177Z,101161.66
2023-05-16T09:13:00.481Z,101168.88
2023-05-16T09:15:33.591Z,101163.34
2023-05-16T09:18:06.394Z,101165.63
2023-05-16T09:20:33.406Z,101165.28
2023-05-16T09:23:01.178Z,101159.13
2023-05-16T09:25:33.416Z,101166.72
2023-05-16T09:28:03.319Z,101186.84
2023-05-16T09:30:35.325Z,101187.47
2023-05-16T09:33:03.337Z,101187.31
2023-05-16T09:35:43.849Z,101182.00
2023-05-16T09:38:22.392Z,101186.22
2023-05-16T09:40:51.925Z,101195.09
2023-05-16T09:43:23.497Z,101193.00
2023-05-16T09:45:53.060Z,101185.31
2023-05-16T09:48:21.988Z,101185.66
2023-05-16T09:50:53.260Z,101182.53
2023-05-16T09:53:32.604Z,101163.22
2023-05-16T09:56:04.501Z,101178.66
2023-05-16T09:58:33.020Z,101172.81
2023-05-16T10:01:00.195Z,101167.72
2023-05-16T10:03:27.935Z,101169.28
2023-05-16T10:05:56.245Z,101181.13
2023-05-16T10:08:27.488Z,101184.78
2023-05-16T10:10:56.926Z,101183.75
2023-05-16T10:13:32.140Z,101174.44
2023-05-16T10:16:11.277Z,101165.84
2023-05-16T10:18:41.193Z,101173.84
2023-05-16T10:21:18.218Z,101167.94
2023-05-16T10:23:52.636Z,101180.38
2023-05-16T10:26:23.622Z,101174.47
2023-05-16T10:28:52.071Z,101170.13
2023-05-16T10:31:19.784Z,101181.25
2023-05-16T10:33:48.067Z,101167.66
2023-05-16T10:36:17.001Z,101157.50
2023-05-16T10:38:48.152Z,101167.56
2023-05-16T10:41:18.157Z,101163.41
2023-05-16T10:43:56.892Z,101174.81
2023-05-16T10:46:25.596Z,101171.16
2023-05-16T10:48:56.543Z,101156.34
2023-05-16T10:51:40.268Z,101159.06
2023-05-16T10:54:12.803Z,101147.09
2023-05-16T10:56:40.333Z,101154.41
2023-05-16T10:59:27.147Z,101162.13
2023-05-16T11:01:56.563Z,101161.56
2023-05-16T11:04:24.001Z,101165.91
2023-05-16T11:06:56.685Z,101163.81
2023-05-16T11:09:29.112Z,101174.78
2023-05-16T11:12:04.381Z,101184.91
2023-05-16T11:14:34.356Z,101182.38
2023-05-16T11:17:23.301Z,101181.56
2023-05-16T11:20:00.870Z,101189.47
2023-05-16T11:22:41.483Z,101194.53
2023-05-16T11:25:10.707Z,101180.72
2023-05-16T11:27:48.277Z,101191.28
2023-05-16T11:30:19.910Z,101171.84
2023-05-16T11:32:48.768Z,101176.56
2023-05-16T11:35:18.311Z,101193.56
2023-05-16T11:37:47.108Z,101187.06
2023-05-16T11:40:18.000Z,101189.97
2023-05-16T11:42:48.052Z,101182.56
2023-05-16T11:45:24.758Z,101181.09
2023-05-16T11:47:52.435Z,101198.91
2023-05-16T11:50:24.258Z,101206.94
2023-05-16T11:52:56.742Z,101199.75
2023-05-16T11:55:41.212Z,101220.66
2023-05-16T11:58:12.546Z,101205.22
2023-05-16T12:00:54.261Z,101220.66
2023-05-16T12:03:24.355Z,101215.50
2023-05-16T12:05:57.105Z,101227.63
2023-05-16T12:08:26.828Z,101222.94
2023-05-16T12:10:56.652Z,101220.81
2023-05-16T12:13:28.205Z,101219.31
2023-05-16T12:15:55.529Z,101216.19
2023-05-16T12:18:25.349Z,101217.59
2023-05-16T12:20:52.553Z,101228.50
2023-05-16T12:23:19.876Z,101236.00
2023-05-16T12:25:50.105Z,101237.97
2023-05-16T12:28:17.375Z,101236.19
2023-05-16T12:30:50.141Z,101251.47
2023-05-16T12:33:17.467Z,101260.00
2023-05-16T12:35:47.702Z,101241.88
2023-05-16T12:38:17.432Z,101249.22
2023-05-16T12:40:45.033Z,101253.88
2023-05-16T12:43:16.532Z,101242.47
2023-05-16T12:45:54.777Z,101246.56
2023-05-16T12:48:32.438Z,101251.34
2023-05-16T12:51:18.081Z,101251.94
2023-05-16T12:54:01.382Z,101258.50
2023-05-16T12:56:33.024Z,101269.44
2023-05-16T12:59:00.065Z,101274.31
2023-05-16T13:01:27.291Z,101268.41
2023-05-16T13:03:54.544Z,101278.22
2023-05-16T13:06:24.104Z,101294.03
2023-05-16T13:08:53.556Z,101295.88
2023-05-16T13:11:21.015Z,101308.78
2023-05-16T13:13:48.147Z,101304.66
2023-05-16T13:16:16.548Z,101302.50
2023-05-16T13:18:46.243Z,101299.94
2023-05-16T13:21:13.235Z,101298.53
2023-05-16T13:23:40.220Z,101288.31
2023-05-16T13:26:07.516Z,101286.38
2023-05-16T13:28:34.534Z,101300.16
2023-05-16T13:31:04.438Z,101293.56
2023-05-16T13:33:31.464Z,101293.13
2023-05-16T13:35:58.677Z,101292.56
2023-05-16T13:38:28.781Z,101308.81
2023-05-16T13:40:55.793Z,101305.06
2023-05-16T13:43:22.794Z,101312.94
2023-05-16T13:45:50.087Z,101307.38
2023-05-16T13:48:19.635Z,101304.41
2023-05-16T13:50:47.195Z,101301.78
2023-05-16T13:53:16.818Z,101296.91
2023-05-16T13:55:46.354Z,101303.25
2023-05-16T13:58:13.439Z,101294.72
2023-05-16T14:00:45.262Z,101294.78
2023-05-16T14:03:13.876Z,101282.16
2023-05-16T14:05:43.085Z,101284.53
2023-05-16T14:08:14.210Z,101281.75
2023-05-16T14:10:41.255Z,101286.22
2023-05-16T14:13:10.872Z,101284.06
2023-05-16T14:15:37.825Z,101284.13
2023-05-16T14:18:07.606Z,101306.28
2023-05-16T14:20:34.721Z,101304.34
2023-05-16T14:23:03.900Z,101300.22
2023-05-16T14:25:33.481Z,101294.38
2023-05-16T14:28:00.544Z,101311.91
2023-05-16T14:30:27.906Z,101306.22
2023-05-16T14:32:55.215Z,101327.13
2023-05-16T14:35:22.372Z,101325.50
2023-05-16T14:37:52.017Z,101318.66
2023-05-16T14:40:19.069Z,101321.53
2023-05-16T14:42:46.298Z,101322.19
2023-05-16T14:45:16.092Z,101328.75
2023-05-16T14:47:43.819Z,101329.78
2023-05-16T14:50:11.533Z,101332.78
2023-05-16T14:52:41.355Z,101328.88
2023-05-16T14:55:08.686Z,101334.09
2023-05-16T14:57:38.210Z,101330.06
2023-05-16T15:00:07.418Z,101338.66
2023-05-16T15:02:34.517Z,101345.13
2023-05-16T15:05:01.802Z,101349.25
2023-05-16T15:07:29.020Z,101340.22
2023-05-16T15:09:56.643Z,101342.53
2023-05-16T15:12:23.686Z,101346.19
2023-05-16T15:14:50.772Z,101349.22
2023-05-16T15:17:19.978Z,101337.16
2023-05-16T15:19:49.002Z,101335.63
2023-05-16T15:22:15.953Z,101345.38
2023-05-16T15:24:43.129Z,101336.41
2023-05-16T15:27:12.273Z,101339.97
2023-05-16T15:29:39.274Z,101340.34
2023-05-16T15:32:06.950Z,101340.22
2023-05-16T15:34:35.596Z,101337.81
2023-05-16T15:37:05.086Z,101345.28
2023-05-16T15:39:32.145Z,101343.19
2023-05-16T15:42:09.914Z,101344.13
2023-05-16T15:44:39.621Z,101334.06
2023-05-16T15:47:10.798Z,101326.38
2023-05-16T15:49:40.206Z,101339.72
2023-05-16T15:52:08.840Z,101333.84
2023-05-16T15:54:37.877Z,101329.59
2023-05-16T15:57:05.244Z,101327.03
2023-05-16T15:59:34.881Z,101321.56
2023-05-16T16:02:05.436Z,101327.44
2023-05-16T16:04:37.660Z,101330.06
2023-05-16T16:07:10.905Z,101335.50
2023-05-16T16:09:40.403Z,101332.53
2023-05-16T16:12:08.074Z,101337.22
2023-05-16T16:14:37.734Z,101336.69
2023-05-16T16:17:07.367Z,101336.91
2023-05-16T16:19:34.365Z,101332.00
2023-05-16T16:22:01.459Z,101333.00
2023-05-16T16:24:31.531Z,101336.78
2023-05-16T16:26:58.501Z,101344.31
2023-05-16T16:29:29.052Z,101342.09
2023-05-16T16:31:58.889Z,101341.25
2023-05-16T16:34:25.984Z,101340.00
2023-05-16T16:36:53.244Z,101344.66
2023-05-16T16:39:23.156Z,101349.00
2023-05-16T16:41:54.708Z,101350.59
2023-05-16T16:44:21.657Z,101353.25
2023-05-16T16:46:48.671Z,101359.97
2023-05-16T16:49:15.836Z,101362.91
2023-05-16T16:51:42.901Z,101358.75
2023-05-16T16:54:09.939Z,101368.47
2023-05-16T16:56:39.966Z,101374.59
2023-05-16T16:59:06.892Z,101375.22
2023-05-16T17:01:35.028Z,101368.84
2023-05-16T17:04:02.325Z,101367.50
2023-05-16T17:06:30.222Z,101382.25
2023-05-16T17:09:02.458Z,101389.00
2023-05-16T17:11:36.302Z,101384.88
2023-05-16T17:14:06.409Z,101389.25
2023-05-16T17:16:34.145Z,101396.19
2023-05-16T17:19:04.594Z,101406.44
2023-05-16T17:21:36.792Z,101396.75
2023-05-16T17:24:07.401Z,101393.34
2023-05-16T17:26:37.011Z,101392.91
2023-05-16T17:29:05.188Z,101389.44
2023-05-16T17:31:34.680Z,101402.56
2023-05-16T17:34:01.833Z,101391.09
2023-05-16T17:36:31.047Z,101396.91
2023-05-16T17:38:59.317Z,101396.03
2023-05-16T17:41:28.804Z,101394.44
2023-05-16T17:43:55.779Z,101385.13
2023-05-16T17:46:22.689Z,101383.16
2023-05-16T17:48:52.731Z,101389.91
2023-05-16T17:51:22.008Z,101387.56
2023-05-16T17:53:51.455Z,101394.66
2023-05-16T17:56:21.346Z,101391.69
2023-05-16T17:58:48.833Z,101391.16
2023-05-16T18:01:19.142Z,101385.69
2023-05-16T18:03:46.180Z,101390.06
2023-05-16T18:06:13.873Z,101390.97
2023-05-16T18:08:41.142Z,101392.63
2023-05-16T18:11:08.155Z,101397.84
2023-05-16T18:13:35.180Z,101402.47
2023-05-16T18:16:02.614Z,101396.22
2023-05-16T18:18:29.788Z,101410.53
2023-05-16T18:20:57.026Z,101403.31
2023-05-16T18:23:24.834Z,101412.84
2023-05-16T18:25:51.884Z,101426.50
2023-05-16T18:28:21.776Z,101417.41
2023-05-16T18:30:49.446Z,101419.44
2023-05-16T18:33:16.939Z,101416.03
2023-05-16T18:35:43.943Z,101427.97
2023-05-16T18:38:20.272Z,101421.50
2023-05-16T18:40:56.011Z,101427.56
2023-05-16T18:43:25.538Z,101434.03
2023-05-16T18:45:52.742Z,101422.25
2023-05-16T18:48:20.251Z,101425.00
2023-05-16T18:50:47.335Z,101427.38
2023-05-16T18:53:14.349Z,101426.16
2023-05-16T18:55:44.393Z,101427.03
2023-05-16T18:58:11.570Z,101424.13
2023-05-16T19:00:38.554Z,101431.41
2023-05-16T19:03:09.878Z,101441.97
2023-05-16T19:05:37.549Z,101437.03
2023-05-16T19:08:05.057Z,101447.53
2023-05-16T19:10:38.202Z,101443.81
2023-05-16T19:13:08.899Z,101443.84
2023-05-16T19:15:37.171Z,101453.84
2023-05-16T19:18:06.642Z,101453.81
2023-05-16T19:20:37.012Z,101461.66
2023-05-16T19:23:04.061Z,101460.63
2023-05-16T19:25:33.904Z,101472.72
2023-05-16T19:28:01.022Z,101470.84
2023-05-16T19:30:28.547Z,101479.38
2023-05-16T19:32:55.823Z,101477.50
2023-05-16T19:35:23.397Z,101479.03
2023-05-16T19:37:53.591Z,101483.03
2023-05-16T19:40:20.573Z,101484.38
2023-05-16T19:42:50.049Z,101481.59
2023-05-16T19:45:17.267Z,101484.00
2023-05-16T19:47:44.289Z,101475.94
2023-05-16T19:50:16.308Z,101487.69
2023-05-16T19:52:45.727Z,101486.97
2023-05-16T19:55:13.372Z,101491.78
2023-05-16T19:57:45.054Z,101485.31
2023-05-16T20:00:16.508Z,101491.09
2023-05-16T20:02:46.040Z,101483.34
2023-05-16T20:05:14.558Z,101484.50
2023-05-16T20:07:41.713Z,101484.28
2023-05-16T20:10:10.089Z,101479.13
2023-05-16T20:12:37.498Z,101479.38
2023-05-16T20:15:08.322Z,101477.78
2023-05-16T20:17:39.802Z,101473.84
2023-05-16T20:20:09.548Z,101479.34
2023-05-16T20:22:41.416Z,101483.47
2023-05-16T20:25:10.409Z,101469.88
2023-05-16T20:27:38.175Z,101482.81
2023-05-16T20:30:07.673Z,101480.44
2023-05-16T20:32:37.823Z,101477.78
2023-05-16T20:35:09.115Z,101476.09
2023-05-16T20:37:36.164Z,101481.19
2023-05-16T20:40:03.736Z,101482.28
2023-05-16T20:42:30.777Z,101480.78
2023-05-16T20:44:57.934Z,101478.06
2023-05-16T20:47:27.563Z,101477.63
2023-05-16T20:49:56.835Z,101475.03
2023-05-16T20:52:24.035Z,101479.69
2023-05-16T20:54:53.184Z,101481.69
2023-05-16T20:57:22.231Z,101476.75
2023-05-16T20:59:49.264Z,101483.69
2023-05-16T21:02:16.483Z,101484.63
2023-05-16T21:04:45.831Z,101474.41
2023-05-16T21:07:12.924Z,101482.19
2023-05-16T21:09:40.717Z,101487.22
2023-05-16T21:12:08.167Z,101477.03
2023-05-16T21:14:38.069Z,101492.69
2023-05-16T21:17:05.144Z,101479.81
2023-05-16T21:19:35.501Z,101482.22
2023-05-16T21:22:05.152Z,101477.25
2023-05-16T21:24:35.647Z,101476.28
2023-05-16T21:27:04.185Z,101483.50
2023-05-16T21:29:31.438Z,101479.38
2023-05-16T21:31:58.995Z,101470.72
2023-05-16T21:34:26.143Z,101470.78
2023-05-16T21:36:53.882Z,101481.44
2023-05-16T21:39:20.976Z,101474.16
2023-05-16T21:41:48.018Z,101478.91
2023-05-16T21:44:18.572Z,101475.44
2023-05-16T21:46:50.077Z,101480.88
2023-05-16T21:49:19.302Z,101480.59
2023-05-16T21:51:48.701Z,101477.59
2023-05-16T21:54:17.827Z,101484.75
2023-05-16T21:56:44.955Z,101473.53
2023-05-16T21:59:14.244Z,101474.13
2023-05-16T22:01:41.242Z,101467.13
2023-05-16T22:04:09.057Z,101468.75
2023-05-16T22:06:36.395Z,101472.06
2023-05-16T22:09:03.546Z,101467.81
2023-05-16T22:11:30.576Z,101468.84
2023-05-16T22:13:57.691Z,101462.84
2023-05-16T22:16:26.755Z,101473.59
2023-05-16T22:18:56.327Z,101473.75
2023-05-16T22:21:25.584Z,101472.88
2023-05-16T22:23:52.595Z,101475.34
2023-05-16T22:26:19.641Z,101475.34
2023-05-16T22:28:51.225Z,101475.06
2023-05-16T22:31:18.252Z,101472.16
2023-05-16T22:33:51.015Z,101480.81
2023-05-16T22:36:21.035Z,101475.75
2023-05-16T22:38:51.322Z,101474.28
2023-05-16T22:41:18.409Z,101471.44
2023-05-16T22:43:45.496Z,101478.53
2023-05-16T22:46:12.629Z,101473.31
2023-05-16T22:48:44.442Z,101473.56
2023-05-16T22:51:11.532Z,101477.78
2023-05-16T22:53:40.799Z,101478.84
2023-05-16T22:56:08.511Z,101489.09
2023-05-16T22:58:38.271Z,101481.19
2023-05-16T23:01:07.885Z,101489.41
2023-05-16T23:03:35.166Z,101483.53
2023-05-16T23:06:04.740Z,101485.47
2023-05-16T23:08:31.809Z,101491.25
2023-05-16T23:10:58.846Z,101485.13
2023-05-16T23:13:28.373Z,101489.34
2023-05-16T23:15:55.612Z,101478.84
2023-05-16T23:18:22.713Z,101492.28
2023-05-16T23:20:49.791Z,101495.78
2023-05-16T23:23:19.435Z,101497.72
2023-05-16T23:25:46.855Z,101500.16
2023-05-16T23:28:14.945Z,101498.38
2023-05-16T23:30:41.994Z,101498.31
2023-05-16T23:33:11.345Z,101507.06
2023-05-16T23:35:38.553Z,101494.63
2023-05-16T23:38:05.574Z,101501.31
2023-05-16T23:40:32.649Z,101509.31
2023-05-16T23:42:59.833Z,101506.91
2023-05-16T23:45:27.982Z,101506.53
2023-05-16T23:47:55.086Z,101516.72
2023-05-16T23:50:24.532Z,101514.22
2023-05-16T23:52:51.599Z,101523.59
2023-05-16T23:55:20.353Z,101522.94
2023-05-16T23:57:47.610Z,101517.50
